Time;durP1;ratioP1;P1;durP2;ratioP2;P2;SDS_P1;SDS_P2;PMS_P1;PMS_P2;Temp;Humidity;BMP_temperature;BMP_pressure;BME280_temperature;BME280_humidity;BME280_pressure;Samples;Min_cycle;Max_cycle;Signal;HPM_P1;HPM_P2
2021/12/04 00:00:58;;;;;;;0.20;0.10;;;;;;;4.83;100.00;99070.41;4964542;28;20539;-48
2021/12/04 00:03:26;;;;;;;0.20;0.10;;;;;;;4.67;100.00;99065.53;4964910;28;20983;-50
2021/12/04 00:05:55;;;;;;;0.20;0.20;;;;;;;4.66;100.00;99045.38;4961010;28;20542;-50
2021/12/04 00:08:25;;;;;;;0.20;0.10;;;;;;;4.60;100.00;99042.00;4962653;28;20478;-50
2021/12/04 00:10:52;;;;;;;0.20;0.10;;;;;;;4.74;100.00;99040.75;4969261;28;20458;-50
2021/12/04 00:13:19;;;;;;;0.20;0.20;;;;;;;4.84;100.00;99032.66;4964056;28;20486;-50
2021/12/04 00:15:46;;;;;;;0.20;0.10;;;;;;;4.78;100.00;99031.00;4959521;28;20461;-50
2021/12/04 00:18:13;;;;;;;0.20;0.10;;;;;;;4.76;100.00;99024.94;4971990;28;21050;-50
2021/12/04 00:20:41;;;;;;;0.20;0.10;;;;;;;4.59;100.00;99021.88;4967347;28;20462;-49
2021/12/04 00:23:08;;;;;;;0.20;0.10;;;;;;;4.67;100.00;99018.16;4967238;28;20457;-50
2021/12/04 00:25:35;;;;;;;0.20;0.10;;;;;;;4.72;100.00;99012.75;4960745;28;20979;-50
2021/12/04 00:28:02;;;;;;;0.20;0.10;;;;;;;4.73;100.00;99009.22;4968928;28;20589;-50
2021/12/04 00:30:29;;;;;;;0.20;0.10;;;;;;;4.75;100.00;99008.28;4960685;28;20541;-50
2021/12/04 00:32:59;;;;;;;0.20;0.10;;;;;;;4.67;100.00;98998.88;4960088;28;20510;-50
2021/12/04 00:49:07;;;;;;;0.20;0.13;;;;;;;4.78;100.00;98988.03;4966555;28;20451;-50
2021/12/04 00:51:34;;;;;;;0.20;0.10;;;;;;;4.74;100.00;98985.50;4970670;28;20510;-50
2021/12/04 00:54:01;;;;;;;0.20;0.10;;;;;;;4.78;100.00;98980.13;4970144;28;20454;-50
2021/12/04 00:56:27;;;;;;;0.20;0.10;;;;;;;4.77;100.00;98979.28;4963240;28;20455;-50
2021/12/04 00:58:54;;;;;;;0.20;0.10;;;;;;;4.74;100.00;98971.47;4970241;28;20474;-50
2021/12/04 01:01:21;;;;;;;0.20;0.10;;;;;;;4.78;100.00;98967.84;4964479;28;20485;-50
2021/12/04 01:03:48;;;;;;;0.20;0.10;;;;;;;4.68;100.00;98963.75;4966973;28;20486;-50
2021/12/04 01:06:14;;;;;;;0.20;0.10;;;;;;;4.90;100.00;98954.34;4960909;28;20835;-50
2021/12/04 01:08:41;;;;;;;0.20;0.10;;;;;;;4.63;100.00;98953.31;4962968;28;20561;-50
2021/12/04 01:11:08;;;;;;;0.20;0.10;;;;;;;4.62;100.00;98950.72;4969302;28;20515;-50
2021/12/04 01:13:34;;;;;;;0.20;0.10;;;;;;;4.64;100.00;98944.53;4970646;28;20454;-50
2021/12/04 01:16:01;;;;;;;0.20;0.10;;;;;;;4.58;100.00;98941.19;4964887;28;20873;-50
2021/12/04 01:18:28;;;;;;;0.20;0.10;;;;;;;4.57;100.00;98929.81;4967858;28;20466;-50
2021/12/04 01:20:55;;;;;;;0.20;0.10;;;;;;;4.63;100.00;98926.13;4971447;28;20508;-50
2021/12/04 01:23:22;;;;;;;0.20;0.10;;;;;;;4.51;100.00;98922.06;4970230;28;20492;-50
2021/12/04 01:25:49;;;;;;;0.20;0.10;;;;;;;4.58;100.00;98922.78;4965583;28;20558;-50
2021/12/04 01:28:16;;;;;;;0.20;0.10;;;;;;;4.63;100.00;98927.00;4962939;28;20495;-50
2021/12/04 01:30:42;;;;;;;0.20;0.10;;;;;;;4.56;100.00;98924.59;4970403;28;20459;-50
2021/12/04 01:33:09;;;;;;;0.20;0.10;;;;;;;4.41;100.00;98925.84;4962948;28;20940;-50
2021/12/04 01:35:36;;;;;;;0.20;0.10;;;;;;;4.42;100.00;98920.56;4967762;28;21068;-50
2021/12/04 01:38:02;;;;;;;0.20;0.10;;;;;;;4.34;100.00;98914.63;4969521;28;20987;-50
2021/12/04 01:40:29;;;;;;;0.40;0.40;;;;;;;4.42;100.00;98914.44;4975587;28;20883;-50
2021/12/04 01:42:56;;;;;;;0.20;0.10;;;;;;;4.40;100.00;98916.25;4963238;28;20463;-50
2021/12/04 01:45:23;;;;;;;0.20;0.10;;;;;;;4.36;100.00;98901.41;4966437;28;20455;-50
2021/12/04 01:47:50;;;;;;;0.20;0.10;;;;;;;4.36;100.00;98899.66;4970955;28;20502;-50
2021/12/04 01:50:16;;;;;;;0.20;0.10;;;;;;;4.26;100.00;98898.19;4975545;28;20482;-50
2021/12/04 01:52:43;;;;;;;0.20;0.10;;;;;;;4.08;100.00;98881.09;4963094;28;20575;-50
2021/12/04 01:55:09;;;;;;;0.30;0.27;;;;;;;3.88;100.00;98872.00;4967186;28;21027;-49
2021/12/04 01:57:37;;;;;;;0.20;0.10;;;;;;;3.92;100.00;98871.00;4969971;28;20471;-50
2021/12/04 02:00:06;;;;;;;0.20;0.10;;;;;;;3.76;100.00;98868.75;4965228;28;20465;-49
2021/12/04 02:02:33;;;;;;;0.20;0.10;;;;;;;3.76;100.00;98868.75;4969475;28;20502;-49
2021/12/04 02:04:59;;;;;;;0.20;0.10;;;;;;;4.12;100.00;98871.38;4966064;28;20889;-50
2021/12/04 02:07:26;;;;;;;0.20;0.10;;;;;;;4.21;100.00;98871.13;4968181;28;20495;-50
2021/12/04 02:09:53;;;;;;;3.20;3.00;;;;;;;4.08;100.00;98856.56;4967067;28;20454;-50
2021/12/04 02:12:19;;;;;;;0.20;0.10;;;;;;;4.28;100.00;98849.03;4969685;28;20462;-50
2021/12/04 02:14:46;;;;;;;0.20;0.10;;;;;;;4.37;100.00;98858.44;4965367;28;20491;-50
2021/12/04 02:17:13;;;;;;;0.20;0.13;;;;;;;4.27;100.00;98856.97;4969206;28;20475;-51
2021/12/04 02:19:40;;;;;;;0.20;0.10;;;;;;;4.30;100.00;98849.84;4970937;28;20458;-50
2021/12/04 02:22:07;;;;;;;0.20;0.10;;;;;;;4.11;100.00;98845.97;4969508;28;20494;-50
2021/12/04 02:24:33;;;;;;;0.20;0.10;;;;;;;4.17;100.00;98845.81;4967211;28;20804;-52
2021/12/04 02:27:00;;;;;;;0.20;0.10;;;;;;;3.89;100.00;98834.28;4970015;28;20522;-50
2021/12/04 02:29:27;;;;;;;0.20;0.10;;;;;;;3.92;100.00;98835.06;4967351;28;20477;-50
2021/12/04 02:31:56;;;;;;;0.20;0.10;;;;;;;3.82;100.00;98839.69;4966640;28;20460;-50
2021/12/04 02:34:29;;;;;;;0.20;0.10;;;;;;;3.97;100.00;98834.94;4968459;28;20514;-50
2021/12/04 02:36:57;;;;;;;0.20;0.10;;;;;;;4.06;100.00;98827.69;4962716;28;20466;-51
2021/12/04 02:39:28;;;;;;;0.20;0.10;;;;;;;4.04;100.00;98818.13;4969042;28;20509;-50
2021/12/04 02:41:55;;;;;;;0.20;0.10;;;;;;;4.19;100.00;98819.47;4964750;28;20463;-50
2021/12/04 02:44:34;;;;;;;0.20;0.10;;;;;;;4.15;100.00;98816.94;4971020;28;20554;-50
2021/12/04 02:47:01;;;;;;;0.20;0.10;;;;;;;4.18;100.00;98816.00;4968413;28;20563;-50
2021/12/04 02:49:27;;;;;;;0.20;0.10;;;;;;;4.23;100.00;98808.84;4976343;28;20465;-50
2021/12/04 02:51:54;;;;;;;0.20;0.10;;;;;;;4.16;100.00;98802.88;4968451;28;20506;-51
2021/12/04 02:54:21;;;;;;;0.20;0.10;;;;;;;4.07;100.00;98794.38;4968797;28;20877;-50
2021/12/04 02:56:49;;;;;;;0.20;0.10;;;;;;;4.10;100.00;98795.16;4956729;28;20506;-50
2021/12/04 02:59:17;;;;;;;0.20;0.10;;;;;;;4.10;100.00;98792.50;4968671;28;20455;-50
2021/12/04 03:01:43;;;;;;;0.20;0.10;;;;;;;4.05;100.00;98793.56;4967521;28;20513;-50
2021/12/04 03:04:12;;;;;;;0.20;0.10;;;;;;;4.04;100.00;98789.22;4961790;28;20454;-50
2021/12/04 03:06:43;;;;;;;0.20;0.10;;;;;;;3.95;100.00;98776.28;4964239;28;20452;-50
2021/12/04 03:09:09;;;;;;;0.20;0.10;;;;;;;3.95;100.00;98771.03;4967750;28;20498;-50
2021/12/04 03:11:36;;;;;;;0.20;0.10;;;;;;;3.84;100.00;98777.47;4965593;28;20512;-50
2021/12/04 03:14:04;;;;;;;0.20;0.10;;;;;;;3.77;100.00;98775.88;4957252;28;20951;-50
2021/12/04 03:16:31;;;;;;;0.20;0.10;;;;;;;3.74;100.00;98759.34;4966334;28;20481;-50
2021/12/04 03:18:58;;;;;;;0.20;0.10;;;;;;;3.63;100.00;98759.59;4965737;28;21014;-50
2021/12/04 03:21:25;;;;;;;0.20;0.10;;;;;;;3.42;100.00;98762.75;4971773;28;20486;-50
2021/12/04 03:23:59;;;;;;;0.20;0.10;;;;;;;3.28;100.00;98760.47;4961500;28;20504;-50
2021/12/04 03:26:26;;;;;;;0.20;0.10;;;;;;;3.35;100.00;98755.94;4961710;28;20448;-50
2021/12/04 03:28:55;;;;;;;0.20;0.10;;;;;;;3.41;100.00;98748.75;4967163;28;20643;-50
2021/12/04 03:42:15;;;;;;;0.30;0.20;;;;;;;2.75;100.00;98728.47;4975644;28;20829;-50
2021/12/04 03:44:41;;;;;;;0.20;0.10;;;;;;;2.75;100.00;98725.84;4961098;28;20450;-49
2021/12/04 03:47:09;;;;;;;0.20;0.10;;;;;;;2.72;100.00;98720.66;4973907;28;20470;-50
2021/12/04 03:49:38;;;;;;;0.20;0.10;;;;;;;2.50;100.00;98712.41;4971799;28;20466;-50
2021/12/04 03:52:06;;;;;;;0.20;0.10;;;;;;;2.53;100.00;98712.34;4963307;28;20459;-50
2021/12/04 03:54:32;;;;;;;18.47;2.77;;;;;;;2.54;100.00;98711.44;4972075;28;20482;-50
2021/12/04 03:57:05;;;;;;;0.20;0.10;;;;;;;2.52;100.00;98704.50;4962524;28;20475;-49
2021/12/04 03:59:34;;;;;;;0.20;0.10;;;;;;;2.62;100.00;98711.28;4966970;28;20956;-50
2021/12/04 04:02:02;;;;;;;0.20;0.10;;;;;;;2.57;100.00;98706.13;4955090;28;20459;-50
2021/12/04 04:04:29;;;;;;;0.20;0.10;;;;;;;2.62;100.00;98700.78;4957624;28;20895;-50
2021/12/04 04:06:58;;;;;;;0.20;0.10;;;;;;;2.52;100.00;98699.25;4967461;28;20478;-50
2021/12/04 04:09:26;;;;;;;0.20;0.10;;;;;;;2.44;100.00;98699.41;4961517;28;20473;-50
2021/12/04 04:11:53;;;;;;;0.20;0.10;;;;;;;2.48;100.00;98700.22;4970761;28;20482;-49
2021/12/04 04:14:20;;;;;;;0.20;0.10;;;;;;;2.47;100.00;98704.63;4962060;28;20450;-50
2021/12/04 04:16:46;;;;;;;0.20;0.13;;;;;;;2.51;100.00;98698.41;4959782;28;20510;-50
2021/12/04 04:19:13;;;;;;;0.20;0.10;;;;;;;2.44;100.00;98694.16;4965602;28;21007;-50
2021/12/04 04:21:41;;;;;;;0.20;0.20;;;;;;;2.40;100.00;98695.13;4971295;28;20466;-50
2021/12/04 04:24:10;;;;;;;0.20;0.10;;;;;;;2.38;100.00;98681.19;4965285;28;20450;-50
2021/12/04 04:26:37;;;;;;;0.20;0.10;;;;;;;2.35;100.00;98682.13;4964656;28;20455;-50
2021/12/04 04:29:05;;;;;;;0.20;0.10;;;;;;;2.32;100.00;98683.94;4968943;28;20491;-50
2021/12/04 04:31:34;;;;;;;0.20;0.10;;;;;;;2.25;100.00;98682.34;4970814;28;20505;-50
2021/12/04 04:34:04;;;;;;;0.20;0.10;;;;;;;2.28;100.00;98672.66;4967415;28;20454;-49
2021/12/04 05:14:41;;;;;;;0.20;0.10;;;;;;;2.51;100.00;98635.47;4967961;28;20454;-50
2021/12/04 05:17:26;;;;;;;0.20;0.10;;;;;;;2.45;100.00;98627.72;4970305;28;20522;-50
2021/12/04 05:19:54;;;;;;;0.20;0.10;;;;;;;2.41;100.00;98630.44;4974279;28;20447;-50
2021/12/04 05:22:21;;;;;;;0.53;0.53;;;;;;;2.61;100.00;98628.25;4968562;28;20459;-50
2021/12/04 05:24:49;;;;;;;0.20;0.10;;;;;;;2.86;100.00;98620.63;4969940;28;20478;-50
2021/12/04 05:27:16;;;;;;;0.20;0.10;;;;;;;2.91;100.00;98608.28;4963702;28;20482;-50
2021/12/04 05:29:43;;;;;;;0.20;0.10;;;;;;;2.96;100.00;98612.50;4963077;28;20494;-50
2021/12/04 05:32:10;;;;;;;0.20;0.10;;;;;;;2.98;100.00;98615.94;4969840;28;20467;-51
2021/12/04 05:34:37;;;;;;;0.20;0.10;;;;;;;2.91;100.00;98613.53;4969273;28;20505;-51
2021/12/04 05:37:04;;;;;;;0.20;0.10;;;;;;;3.04;100.00;98609.69;4963976;28;20497;-51
2021/12/04 05:39:31;;;;;;;0.20;0.10;;;;;;;3.03;100.00;98607.13;4974860;28;20446;-50
2021/12/04 05:41:59;;;;;;;0.20;0.10;;;;;;;2.92;100.00;98604.75;4969992;28;20494;-50
2021/12/04 05:44:27;;;;;;;0.20;0.10;;;;;;;2.95;100.00;98609.91;4969147;28;20482;-50
2021/12/04 05:46:58;;;;;;;0.20;0.10;;;;;;;2.93;100.00;98604.72;4965414;28;20470;-50
2021/12/04 05:56:51;;;;;;;0.20;0.10;;;;;;;2.97;100.00;98601.09;4966345;28;20531;-51
2021/12/04 05:59:18;;;;;;;0.20;0.10;;;;;;;2.90;100.00;98591.69;4969407;28;20478;-50
2021/12/04 06:01:44;;;;;;;0.20;0.10;;;;;;;2.93;100.00;98595.97;4965614;28;20835;-50
2021/12/04 06:04:11;;;;;;;0.20;0.10;;;;;;;2.91;100.00;98589.91;4962362;28;20493;-50
2021/12/04 06:06:38;;;;;;;0.20;0.10;;;;;;;2.95;100.00;98586.31;4969865;28;20879;-51
2021/12/04 06:09:05;;;;;;;0.20;0.10;;;;;;;3.03;100.00;98589.59;4962448;28;20557;-51
2021/12/04 06:11:33;;;;;;;0.20;0.10;;;;;;;3.13;100.00;98591.06;4965795;28;20451;-51
2021/12/04 06:14:01;;;;;;;0.20;0.10;;;;;;;3.13;100.00;98584.94;4972339;28;20594;-51
2021/12/04 06:16:27;;;;;;;0.20;0.10;;;;;;;2.96;100.00;98583.63;4970742;28;20493;-51
2021/12/04 06:18:55;;;;;;;0.20;0.10;;;;;;;3.13;100.00;98579.69;4967601;28;20509;-51
2021/12/04 06:24:07;;;;;;;0.20;0.10;;;;;;;3.05;100.00;98573.81;4968467;28;20458;-51
2021/12/04 06:26:35;;;;;;;0.20;0.10;;;;;;;3.19;100.00;98577.78;4968152;28;20458;-51
2021/12/04 06:29:03;;;;;;;0.20;0.10;;;;;;;3.11;100.00;98578.88;4956639;28;20487;-50
2021/12/04 06:31:31;;;;;;;0.20;0.10;;;;;;;3.22;100.00;98567.22;4968556;28;20994;-51
2021/12/04 06:33:58;;;;;;;0.20;0.10;;;;;;;3.19;100.00;98562.03;4962351;28;20489;-50
2021/12/04 06:36:25;;;;;;;0.20;0.10;;;;;;;3.45;100.00;98569.22;4962032;28;20510;-51
2021/12/04 06:38:53;;;;;;;0.20;0.10;;;;;;;3.24;100.00;98562.78;4968559;28;20475;-51
2021/12/04 06:41:21;;;;;;;0.20;0.10;;;;;;;3.23;100.00;98560.19;4987683;28;21058;-51
2021/12/04 06:43:49;;;;;;;0.20;0.10;;;;;;;3.02;100.00;98560.78;4965721;28;20514;-51
2021/12/04 06:46:18;;;;;;;0.20;0.10;;;;;;;3.22;100.00;98564.59;4961199;28;20466;-51
2021/12/04 06:49:15;;;;;;;0.40;0.40;;;;;;;3.16;100.00;98563.91;4972733;28;20588;-51
2021/12/04 06:51:39;;;;;;;0.20;0.10;;;;;;;3.02;100.00;98560.78;4968279;28;20509;-51
2021/12/04 06:54:16;;;;;;;0.20;0.10;;;;;;;2.97;100.00;98555.63;4968117;28;20890;-51
2021/12/04 06:56:43;;;;;;;0.20;0.10;;;;;;;2.94;100.00;98563.59;4963871;28;20453;-51
2021/12/04 06:59:13;;;;;;;0.20;0.10;;;;;;;3.00;100.00;98563.41;4961448;28;20497;-51
2021/12/04 07:01:41;;;;;;;0.20;0.10;;;;;;;3.12;100.00;98556.97;4965292;28;20447;-51
2021/12/04 07:04:09;;;;;;;0.20;0.10;;;;;;;3.13;100.00;98556.94;4968288;28;20487;-50
2021/12/04 07:06:35;;;;;;;0.20;0.10;;;;;;;3.27;100.00;98561.81;4964058;28;20552;-51
2021/12/04 07:09:05;;;;;;;0.20;0.10;;;;;;;3.37;100.00;98560.69;4961115;28;20556;-51
2021/12/04 07:11:32;;;;;;;0.23;0.17;;;;;;;3.40;100.00;98560.59;4964337;28;20866;-50
2021/12/04 07:13:58;;;;;;;0.30;0.30;;;;;;;3.27;100.00;98565.31;4967838;28;20455;-51
2021/12/04 07:16:25;;;;;;;0.20;0.10;;;;;;;3.32;100.00;98564.34;4965092;28;20583;-51
2021/12/04 07:18:52;;;;;;;0.20;0.10;;;;;;;3.36;100.00;98564.22;4965701;28;20467;-51
2021/12/04 07:21:19;;;;;;;0.20;0.10;;;;;;;3.51;100.00;98566.41;4968051;28;20455;-51
2021/12/04 07:23:46;;;;;;;0.20;0.10;;;;;;;3.28;100.00;98556.53;4965812;28;21038;-51
2021/12/04 07:26:13;;;;;;;0.20;0.10;;;;;;;3.47;100.00;98558.66;4963132;28;20455;-51
2021/12/04 07:28:39;;;;;;;0.20;0.10;;;;;;;3.37;100.00;98557.19;4967587;28;20866;-51
2021/12/04 07:31:06;;;;;;;0.20;0.10;;;;;;;3.30;100.00;98558.28;4966195;28;20505;-52
2021/12/04 07:33:33;;;;;;;0.20;0.10;;;;;;;3.33;100.00;98553.78;4961124;28;20537;-50
2021/12/04 07:36:00;;;;;;;0.20;0.10;;;;;;;3.35;100.00;98556.38;4962041;28;20825;-49
2021/12/04 07:38:28;;;;;;;0.20;0.10;;;;;;;3.65;100.00;98547.63;4967264;28;20483;-50
2021/12/04 07:40:56;;;;;;;0.20;0.10;;;;;;;3.40;100.00;98557.09;4979370;28;20454;-49
2021/12/04 07:43:23;;;;;;;0.20;0.10;;;;;;;3.72;100.00;98558.84;4961108;28;20927;-49
2021/12/04 07:45:50;;;;;;;0.20;0.10;;;;;;;3.47;100.00;98538.50;4973234;28;20455;-50
2021/12/04 07:48:17;;;;;;;0.20;0.10;;;;;;;3.53;100.00;98540.09;4972255;28;20548;-49
2021/12/04 07:50:44;;;;;;;0.20;0.10;;;;;;;3.37;100.00;98537.03;4966544;28;20513;-50
2021/12/04 07:53:11;;;;;;;0.20;0.10;;;;;;;3.37;100.00;98537.03;4960995;28;20534;-50
2021/12/04 07:55:37;;;;;;;0.30;0.20;;;;;;;3.37;100.00;98539.66;4961506;28;20455;-50
2021/12/04 07:58:04;;;;;;;0.30;0.10;;;;;;;3.57;100.00;98541.75;4967468;28;20475;-50
2021/12/04 08:00:31;;;;;;;0.20;0.10;;;;;;;3.57;100.00;98547.00;4956884;28;20495;-49
2021/12/04 08:03:01;;;;;;;0.20;0.10;;;;;;;3.61;100.00;98542.50;4967767;28;20455;-50
2021/12/04 08:05:29;;;;;;;0.20;0.10;;;;;;;3.50;100.00;98538.41;4967349;28;20450;-50
2021/12/04 08:07:56;;;;;;;0.20;0.10;;;;;;;3.53;100.00;98537.47;4966366;28;20479;-49
2021/12/04 08:10:23;;;;;;;0.20;0.10;;;;;;;3.43;100.00;98534.25;4966777;28;20556;-50
2021/12/04 08:12:50;;;;;;;0.20;0.10;;;;;;;3.52;100.00;98541.00;4962518;28;20502;-50
2021/12/04 08:15:17;;;;;;;0.20;0.10;;;;;;;3.48;100.00;98531.50;4966987;28;20447;-50
2021/12/04 08:17:45;;;;;;;0.20;0.10;;;;;;;3.71;100.00;98528.22;4972334;28;20470;-51
2021/12/04 08:20:14;;;;;;;0.20;0.10;;;;;;;3.44;100.00;98535.13;4967490;28;20458;-50
2021/12/04 08:22:42;;;;;;;0.20;0.20;;;;;;;3.26;100.00;98536.47;4961003;28;20957;-49
2021/12/04 08:25:11;;;;;;;0.20;0.10;;;;;;;3.39;100.00;98529.97;4967554;28;20450;-49
2021/12/04 08:27:38;;;;;;;0.20;0.10;;;;;;;3.27;100.00;98530.31;4962917;28;20984;-50
2021/12/04 08:30:10;;;;;;;1.80;1.80;;;;;;;3.24;100.00;98533.88;4960434;28;21008;-49
2021/12/04 08:32:38;;;;;;;0.20;0.10;;;;;;;3.35;100.00;98532.75;4972834;28;20481;-50
2021/12/04 08:35:07;;;;;;;0.20;0.10;;;;;;;3.49;100.00;98536.69;4971790;28;20995;-50
2021/12/04 08:37:34;;;;;;;0.20;0.10;;;;;;;3.28;100.00;98534.66;4961027;28;20565;-49
2021/12/04 08:40:01;;;;;;;0.20;0.10;;;;;;;3.41;100.00;98528.16;4975644;28;20446;-50
2021/12/04 08:42:28;;;;;;;0.20;0.10;;;;;;;3.21;100.00;98535.75;4967646;28;20460;-50
2021/12/04 08:44:54;;;;;;;0.20;0.10;;;;;;;3.28;100.00;98540.78;4966916;28;20521;-52
2021/12/04 08:47:21;;;;;;;0.20;0.10;;;;;;;3.22;100.00;98537.47;4966825;28;20470;-50
2021/12/04 08:49:48;;;;;;;3.03;2.77;;;;;;;3.25;100.00;98524.25;4971488;28;20503;-50
2021/12/04 08:52:18;;;;;;;0.20;0.10;;;;;;;3.20;100.00;98528.78;4961759;28;20459;-50
2021/12/04 08:54:45;;;;;;;0.20;0.10;;;;;;;3.34;100.00;98534.50;4973919;28;20455;-50
2021/12/04 08:57:12;;;;;;;0.43;0.43;;;;;;;3.28;100.00;98535.53;4960637;28;20475;-49
2021/12/04 08:59:39;;;;;;;0.20;0.10;;;;;;;3.09;100.00;98528.19;4966848;28;20514;-50
2021/12/04 09:02:07;;;;;;;0.20;0.10;;;;;;;2.95;100.00;98523.31;4966762;28;20513;-50
2021/12/04 09:04:35;;;;;;;0.20;0.10;;;;;;;3.11;100.00;98534.25;4960559;28;20473;-49
2021/12/04 09:07:05;;;;;;;0.20;0.10;;;;;;;3.20;100.00;98534.03;4960840;28;20526;-50
2021/12/04 09:09:32;;;;;;;0.20;0.10;;;;;;;3.37;100.00;98537.03;4967519;28;20628;-50
2021/12/04 09:12:19;;;;;;;0.20;0.10;;;;;;;3.26;100.00;98528.59;4970012;28;20581;-51
2021/12/04 09:14:46;;;;;;;0.20;0.10;;;;;;;3.41;100.00;98524.69;4967234;28;20458;-50
2021/12/04 09:17:15;;;;;;;0.20;0.10;;;;;;;3.43;100.00;98528.16;4963186;28;20537;-50
2021/12/04 09:19:42;;;;;;;0.20;0.10;;;;;;;3.43;100.00;98530.78;4976130;28;20458;-50
2021/12/04 09:22:15;;;;;;;0.20;0.10;;;;;;;3.57;100.00;98520.75;4963125;28;21000;-50
2021/12/04 09:25:00;;;;;;;0.20;0.20;;;;;;;3.56;100.00;98513.72;4963124;28;20455;-50
2021/12/04 09:30:10;;;;;;;0.20;0.10;;;;;;;3.56;100.00;98509.38;4970043;28;20929;-50
2021/12/04 09:59:13;;;;;;;0.20;0.10;;;;;;;3.47;100.00;98491.25;4980023;28;20445;-49
2021/12/04 10:19:12;;;;;;;0.20;0.10;;;;;;;4.10;100.00;98469.16;4967378;28;20557;-50
2021/12/04 10:32:45;;;;;;;0.20;0.10;;;;;;;4.35;100.00;98439.44;4964791;28;20454;-50
2021/12/04 10:35:18;;;;;;;0.20;0.10;;;;;;;4.12;100.00;98440.22;4961803;28;20509;-50
2021/12/04 10:37:48;;;;;;;0.20;0.10;;;;;;;4.16;100.00;98433.94;4963585;28;20938;-50
2021/12/04 10:40:16;;;;;;;0.20;0.10;;;;;;;4.21;100.00;98418.84;4980532;28;20471;-50
2021/12/04 10:42:51;;;;;;;0.20;0.10;;;;;;;4.16;100.00;98405.88;4980237;28;20466;-50
2021/12/04 10:45:30;;;;;;;0.20;0.10;;;;;;;4.08;100.00;98388.63;4963899;28;20450;-50
2021/12/04 10:47:59;;;;;;;0.20;0.20;;;;;;;4.18;100.00;98387.41;4972595;28;20483;-50
2021/12/04 10:53:04;;;;;;;0.20;0.10;;;;;;;4.49;100.00;98370.56;4961717;28;20450;-50
2021/12/04 10:56:54;;;;;;;0.20;0.10;;;;;;;4.32;100.00;98365.91;4962327;28;20452;-50
2021/12/04 11:04:25;;;;;;;0.20;0.10;;;;;;;4.61;100.00;98352.56;4963082;28;20985;-50
2021/12/04 11:07:18;;;;;;;0.20;0.10;;;;;;;4.41;100.00;98342.78;4961724;28;21023;-50
2021/12/04 11:21:19;;;;;;;0.20;0.10;;;;;;;4.66;100.00;98334.88;4965170;28;20451;-50
2021/12/04 11:42:59;;;;;;;0.20;0.20;;;;;;;4.81;100.00;98291.34;4980191;28;20481;-50
2021/12/04 11:45:34;;;;;;;0.20;0.20;;;;;;;4.89;100.00;98273.47;4965592;28;20975;-50
2021/12/04 11:48:03;;;;;;;0.40;0.40;;;;;;;4.94;100.00;98273.31;4957574;28;20502;-50
2021/12/04 11:50:38;;;;;;;0.30;0.20;;;;;;;5.09;100.00;98270.09;4974128;28;20571;-50
2021/12/04 11:53:12;;;;;;;0.20;0.10;;;;;;;5.18;100.00;98255.69;4955713;28;20482;-50
2021/12/04 11:55:43;;;;;;;0.30;0.20;;;;;;;4.90;100.00;98250.63;4955030;28;20455;-50
2021/12/04 11:58:21;;;;;;;0.20;0.10;;;;;;;4.79;100.00;98245.78;4962449;28;20474;-50
2021/12/04 12:00:50;;;;;;;0.67;0.67;;;;;;;4.63;100.00;98245.50;4962562;28;20454;-50
2021/12/04 12:03:21;;;;;;;0.20;0.10;;;;;;;4.83;100.00;98247.41;4966609;28;20461;-49
2021/12/04 12:05:54;;;;;;;0.20;0.10;;;;;;;4.88;100.00;98252.47;4961959;28;20445;-50
2021/12/04 12:08:36;;;;;;;0.20;0.10;;;;;;;5.06;100.00;98251.75;4975069;28;20502;-49
2021/12/04 12:11:20;;;;;;;0.20;0.13;;;;;;;4.87;100.00;98242.88;4966986;28;20526;-50
2021/12/04 12:13:55;;;;;;;0.20;0.10;;;;;;;4.82;100.00;98239.56;4968358;28;20454;-50
2021/12/04 12:16:35;;;;;;;0.20;0.10;;;;;;;4.89;100.00;98223.44;4964527;28;20446;-50
2021/12/04 12:19:08;;;;;;;0.20;0.13;;;;;;;4.79;100.00;98224.72;4973877;28;20529;-50
2021/12/04 12:21:55;;;;;;;0.20;0.10;;;;;;;4.87;100.00;98220.03;4973754;28;20450;-50
2021/12/04 12:27:31;;;;;;;0.20;0.10;;;;;;;5.03;100.00;98223.78;4969041;28;20472;-50
2021/12/04 12:38:35;;;;;;;0.20;0.20;;;;;;;4.79;100.00;98193.13;4972420;28;20483;-50
2021/12/04 12:41:30;;;;;;;0.20;0.10;;;;;;;4.83;100.00;98181.59;4992757;28;20443;-50
2021/12/04 12:43:56;;;;;;;0.20;0.10;;;;;;;4.83;100.00;98184.22;4950521;28;20458;-50
2021/12/04 12:46:45;;;;;;;0.20;0.10;;;;;;;4.79;100.00;98181.75;4962157;28;20572;-50
2021/12/04 12:49:38;;;;;;;0.20;0.10;;;;;;;4.84;100.00;98179.81;4969360;28;20458;-50
2021/12/04 12:52:26;;;;;;;0.20;0.10;;;;;;;4.92;100.00;98175.09;4953805;28;21019;-50
2021/12/04 12:54:59;;;;;;;0.20;0.10;;;;;;;4.90;100.00;98175.16;4976899;28;20470;-50
2021/12/04 12:57:34;;;;;;;0.20;0.10;;;;;;;4.92;100.00;98175.94;4964116;28;20542;-50
2021/12/04 13:11:51;;;;;;;0.20;0.13;;;;;;;5.07;100.00;98174.47;4957591;28;20587;-49
2021/12/04 13:14:19;;;;;;;0.20;0.10;;;;;;;5.04;100.00;98159.66;4969664;28;20471;-51
2021/12/04 13:16:58;;;;;;;0.43;0.40;;;;;;;5.14;100.00;98161.94;4971561;28;20454;-50
2021/12/04 13:19:25;;;;;;;0.20;0.10;;;;;;;5.26;100.00;98172.81;4964831;28;20528;-50
2021/12/04 13:21:58;;;;;;;0.20;0.10;;;;;;;5.24;100.00;98198.38;4969798;28;20487;-50
2021/12/04 13:24:26;;;;;;;0.20;0.10;;;;;;;5.02;100.00;98216.78;4968701;28;20450;-50
2021/12/04 13:26:56;;;;;;;0.20;0.10;;;;;;;4.98;100.00;98207.31;4973672;28;20471;-50
2021/12/04 13:29:26;;;;;;;0.20;0.10;;;;;;;4.89;100.00;98205.03;4958886;28;20455;-50
2021/12/04 13:31:57;;;;;;;0.20;0.10;;;;;;;5.00;100.00;98189.66;4957773;28;20902;-50
2021/12/04 13:34:27;;;;;;;0.20;0.10;;;;;;;5.13;100.00;98178.66;4957207;28;20451;-50
2021/12/04 13:36:56;;;;;;;0.20;0.10;;;;;;;4.67;100.00;98149.78;4976529;28;20487;-49
2021/12/04 13:39:22;;;;;;;0.20;0.10;;;;;;;4.67;100.00;98141.03;4969083;28;20469;-49
2021/12/04 13:41:51;;;;;;;0.20;0.13;;;;;;;4.61;100.00;98102.63;4977436;28;20450;-50
2021/12/04 13:44:20;;;;;;;0.20;0.10;;;;;;;4.18;100.00;98061.41;4976987;28;20836;-49
2021/12/04 13:46:48;;;;;;;0.20;0.20;;;;;;;4.32;100.00;98090.63;4977622;28;20450;-49
2021/12/04 13:49:32;;;;;;;0.20;0.10;;;;;;;4.63;100.00;98124.47;4966225;28;20451;-50
2021/12/04 13:52:05;;;;;;;0.20;0.10;;;;;;;4.87;100.00;98124.41;4957731;28;20826;-51
2021/12/04 13:54:42;;;;;;;0.20;0.10;;;;;;;4.79;100.00;98143.13;4961062;28;20512;-50
2021/12/04 13:57:10;;;;;;;0.20;0.10;;;;;;;4.82;100.00;98134.28;4963679;28;20522;-50
2021/12/04 13:59:37;;;;;;;0.20;0.10;;;;;;;5.15;100.00;98132.91;4956862;28;20455;-50
2021/12/04 14:02:04;;;;;;;0.20;0.13;;;;;;;5.29;100.00;98130.53;4968947;28;20454;-50
2021/12/04 14:04:31;;;;;;;5.73;2.47;;;;;;;5.31;100.00;98122.56;4968844;28;20490;-50
2021/12/04 14:07:03;;;;;;;0.20;0.10;;;;;;;5.21;100.00;98116.00;4969000;28;20525;-50
2021/12/04 14:09:33;;;;;;;0.20;0.10;;;;;;;5.46;100.00;98111.38;4963215;28;20501;-50
2021/12/04 14:12:01;;;;;;;0.20;0.17;;;;;;;5.10;100.00;98113.81;4974042;28;20524;-50
2021/12/04 14:14:29;;;;;;;0.30;0.20;;;;;;;5.44;100.00;98129.03;4964151;28;20487;-50
2021/12/04 14:17:13;;;;;;;0.20;0.10;;;;;;;5.43;100.00;98129.09;4973344;28;20474;-50
2021/12/04 14:19:41;;;;;;;0.20;0.10;;;;;;;5.04;100.00;98133.34;4971286;28;20450;-50
2021/12/04 14:22:17;;;;;;;0.77;0.77;;;;;;;5.06;100.00;98118.31;4962044;28;20492;-50
2021/12/04 14:24:48;;;;;;;0.20;0.10;;;;;;;5.32;100.00;98119.00;4963067;28;20454;-50
2021/12/04 14:27:20;;;;;;;0.20;0.10;;;;;;;5.30;100.00;98126.13;4955615;28;20898;-50
2021/12/04 14:29:49;;;;;;;0.20;0.13;;;;;;;4.97;100.00;98131.88;4955558;28;20866;-50
2021/12/04 14:32:23;;;;;;;0.20;0.10;;;;;;;4.88;100.00;98134.03;4963413;28;20451;-50
2021/12/04 14:35:02;;;;;;;0.20;0.10;;;;;;;4.87;100.00;98135.81;4962133;28;20454;-50
2021/12/04 14:37:37;;;;;;;0.20;0.10;;;;;;;4.84;100.00;98138.56;4964971;28;20526;-50
2021/12/04 14:40:06;;;;;;;0.63;0.60;;;;;;;4.93;100.00;98134.69;4972105;28;20488;-50
2021/12/04 14:42:34;;;;;;;0.20;0.20;;;;;;;5.19;100.00;98138.88;4982178;28;20454;-50
2021/12/04 14:45:06;;;;;;;0.20;0.10;;;;;;;4.90;100.00;98129.56;4961842;28;20458;-50
2021/12/04 14:47:37;;;;;;;0.20;0.10;;;;;;;5.02;100.00;98132.53;4974790;28;20470;-50
2021/12/04 14:50:09;;;;;;;0.20;0.10;;;;;;;4.97;100.00;98128.41;4972487;28;20450;-50
2021/12/04 14:52:36;;;;;;;0.20;0.10;;;;;;;5.17;100.00;98132.81;4961671;28;20455;-51
2021/12/04 14:55:25;;;;;;;0.20;0.10;;;;;;;5.15;100.00;98119.72;4966255;28;20459;-50
2021/12/04 14:57:52;;;;;;;0.20;0.10;;;;;;;5.02;100.00;98123.78;4954871;28;20467;-50